sensor_id;sensor_type;location;lat;lon;timestamp;temperature;humidity
6930;DHT22;3504;52.616;13.238;2023-02-24T00:04:37;7.16;87.18
6930;DHT22;3504;52.616;13.238;2023-02-24T00:09:39;7.15;87.31
6930;DHT22;3504;52.616;13.238;2023-02-24T00:14:42;7.12;87.16
6930;DHT22;3504;52.616;13.238;2023-02-24T00:19:43;7.06;86.64
6930;DHT22;3504;52.616;13.238;2023-02-24T00:24:45;7.01;86.86
6930;DHT22;3504;52.616;13.238;2023-02-24T00:29:46;6.91;86.35
6930;DHT22;3504;52.616;13.238;2023-02-24T00:34:47;6.85;85.71
6930;DHT22;3504;52.616;13.238;2023-02-24T00:39:47;6.85;85.52
6930;DHT22;3504;52.616;13.238;2023-02-24T00:44:48;6.64;83.97
6930;DHT22;3504;52.616;13.238;2023-02-24T00:49:49;6.57;83.71
6930;DHT22;3504;52.616;13.238;2023-02-24T00:54:49;6.40;83.12
6930;DHT22;3504;52.616;13.238;2023-02-24T00:59:50;6.24;82.70
6930;DHT22;3504;52.616;13.238;2023-02-24T01:04:53;6.19;83.36
6930;DHT22;3504;52.616;13.238;2023-02-24T01:09:54;6.11;83.10
6930;DHT22;3504;52.616;13.238;2023-02-24T01:14:54;5.92;82.04
6930;DHT22;3504;52.616;13.238;2023-02-24T01:19:55;5.82;82.12
6930;DHT22;3504;52.616;13.238;2023-02-24T01:24:59;5.76;82.48
6930;DHT22;3504;52.616;13.238;2023-02-24T01:30:00;5.51;79.34
6930;DHT22;3504;52.616;13.238;2023-02-24T01:35:03;5.45;77.98
6930;DHT22;3504;52.616;13.238;2023-02-24T01:40:04;5.35;79.35
6930;DHT22;3504;52.616;13.238;2023-02-24T01:45:22;5.25;78.65
6930;DHT22;3504;52.616;13.238;2023-02-24T01:50:24;5.14;78.38
6930;DHT22;3504;52.616;13.238;2023-02-24T01:55:42;5.03;77.56
6930;DHT22;3504;52.616;13.238;2023-02-24T02:00:48;4.92;78.40
6930;DHT22;3504;52.616;13.238;2023-02-24T02:05:50;4.86;78.75
6930;DHT22;3504;52.616;13.238;2023-02-24T02:10:51;4.80;78.61
6930;DHT22;3504;52.616;13.238;2023-02-24T02:28:00;4.71;78.35
6930;DHT22;3504;52.616;13.238;2023-02-24T02:39:58;4.53;77.09
6930;DHT22;3504;52.616;13.238;2023-02-24T02:44:37;4.45;76.79
6930;DHT22;3504;52.616;13.238;2023-02-24T02:49:44;4.39;76.71
6930;DHT22;3504;52.616;13.238;2023-02-24T02:55:21;4.31;76.07
6930;DHT22;3504;52.616;13.238;2023-02-24T03:00:31;4.34;76.36
6930;DHT22;3504;52.616;13.238;2023-02-24T03:06:06;4.28;76.56
6930;DHT22;3504;52.616;13.238;2023-02-24T03:11:11;4.26;76.12
6930;DHT22;3504;52.616;13.238;2023-02-24T03:16:13;4.26;76.75
6930;DHT22;3504;52.616;13.238;2023-02-24T03:21:29;4.22;75.56
6930;DHT22;3504;52.616;13.238;2023-02-24T03:27:07;4.24;75.50
6930;DHT22;3504;52.616;13.238;2023-02-24T03:32:21;4.26;76.14
6930;DHT22;3504;52.616;13.238;2023-02-24T03:37:26;4.29;76.64
6930;DHT22;3504;52.616;13.238;2023-02-24T03:42:30;4.29;76.21
6930;DHT22;3504;52.616;13.238;2023-02-24T03:47:32;4.24;76.24
6930;DHT22;3504;52.616;13.238;2023-02-24T03:53:14;4.25;76.64
6930;DHT22;3504;52.616;13.238;2023-02-24T04:09:23;4.20;77.31
6930;DHT22;3504;52.616;13.238;2023-02-24T04:20:01;4.12;77.18
6930;DHT22;3504;52.616;13.238;2023-02-24T04:25:14;4.17;77.47
6930;DHT22;3504;52.616;13.238;2023-02-24T04:30:17;4.17;76.93
6930;DHT22;3504;52.616;13.238;2023-02-24T04:35:20;4.14;77.19
6930;DHT22;3504;52.616;13.238;2023-02-24T04:40:23;4.20;77.17
6930;DHT22;3504;52.616;13.238;2023-02-24T04:45:28;4.24;77.36
6930;DHT22;3504;52.616;13.238;2023-02-24T04:50:35;4.15;76.53
6930;DHT22;3504;52.616;13.238;2023-02-24T04:55:41;4.11;76.65
6930;DHT22;3504;52.616;13.238;2023-02-24T05:00:42;4.11;76.61
6930;DHT22;3504;52.616;13.238;2023-02-24T05:05:50;4.11;76.88
6930;DHT22;3504;52.616;13.238;2023-02-24T05:10:51;4.11;76.82
6930;DHT22;3504;52.616;13.238;2023-02-24T05:15:53;4.12;76.89
6930;DHT22;3504;52.616;13.238;2023-02-24T05:20:55;4.08;76.37
6930;DHT22;3504;52.616;13.238;2023-02-24T05:26:17;4.01;76.14
6930;DHT22;3504;52.616;13.238;2023-02-24T05:31:22;4.01;75.93
6930;DHT22;3504;52.616;13.238;2023-02-24T05:36:28;4.01;75.85
6930;DHT22;3504;52.616;13.238;2023-02-24T05:41:29;4.04;76.03
6930;DHT22;3504;52.616;13.238;2023-02-24T05:46:42;4.04;76.01
6930;DHT22;3504;52.616;13.238;2023-02-24T05:51:43;4.07;76.53
6930;DHT22;3504;52.616;13.238;2023-02-24T05:57:06;4.01;76.19
6930;DHT22;3504;52.616;13.238;2023-02-24T06:02:13;3.98;76.00
6930;DHT22;3504;52.616;13.238;2023-02-24T06:07:18;3.98;76.45
6930;DHT22;3504;52.616;13.238;2023-02-24T06:12:21;3.98;76.20
6930;DHT22;3504;52.616;13.238;2023-02-24T06:17:23;4.00;76.31
6930;DHT22;3504;52.616;13.238;2023-02-24T06:22:25;3.94;76.26
6930;DHT22;3504;52.616;13.238;2023-02-24T06:27:25;3.94;76.26
6930;DHT22;3504;52.616;13.238;2023-02-24T06:32:26;4.00;76.64
6930;DHT22;3504;52.616;13.238;2023-02-24T06:37:27;4.01;76.27
6930;DHT22;3504;52.616;13.238;2023-02-24T06:42:29;3.95;75.98
6930;DHT22;3504;52.616;13.238;2023-02-24T06:47:29;3.98;75.79
6930;DHT22;3504;52.616;13.238;2023-02-24T06:52:32;3.98;76.10
6930;DHT22;3504;52.616;13.238;2023-02-24T06:57:33;4.05;75.90
6930;DHT22;3504;52.616;13.238;2023-02-24T07:02:33;4.05;75.02
6930;DHT22;3504;52.616;13.238;2023-02-24T07:07:39;4.04;74.40
6930;DHT22;3504;52.616;13.238;2023-02-24T07:12:45;3.98;74.79
6930;DHT22;3504;52.616;13.238;2023-02-24T07:17:45;4.02;74.16
6930;DHT22;3504;52.616;13.238;2023-02-24T07:22:46;4.04;74.20
6930;DHT22;3504;52.616;13.238;2023-02-24T07:27:47;4.08;73.94
6930;DHT22;3504;52.616;13.238;2023-02-24T07:32:47;4.02;72.76
6930;DHT22;3504;52.616;13.238;2023-02-24T07:37:48;4.05;72.10
6930;DHT22;3504;52.616;13.238;2023-02-24T07:42:49;4.07;71.20
6930;DHT22;3504;52.616;13.238;2023-02-24T07:47:53;4.11;70.96
6930;DHT22;3504;52.616;13.238;2023-02-24T07:52:53;4.22;70.91
6930;DHT22;3504;52.616;13.238;2023-02-24T07:57:54;4.21;70.05
6930;DHT22;3504;52.616;13.238;2023-02-24T08:02:56;4.17;69.76
6930;DHT22;3504;52.616;13.238;2023-02-24T08:07:59;4.29;70.09
6930;DHT22;3504;52.616;13.238;2023-02-24T08:13:00;4.39;69.67
6930;DHT22;3504;52.616;13.238;2023-02-24T08:18:02;4.42;69.74
6930;DHT22;3504;52.616;13.238;2023-02-24T08:23:03;4.53;69.64
6930;DHT22;3504;52.616;13.238;2023-02-24T08:28:07;4.69;69.11
6930;DHT22;3504;52.616;13.238;2023-02-24T08:33:18;4.77;69.50
6930;DHT22;3504;52.616;13.238;2023-02-24T08:38:21;4.86;69.41
6930;DHT22;3504;52.616;13.238;2023-02-24T08:43:29;4.82;69.32
6930;DHT22;3504;52.616;13.238;2023-02-24T08:48:36;4.82;69.90
6930;DHT22;3504;52.616;13.238;2023-02-24T08:53:38;4.87;69.71
6930;DHT22;3504;52.616;13.238;2023-02-24T08:58:43;4.97;69.21
6930;DHT22;3504;52.616;13.238;2023-02-24T09:03:48;4.94;68.81
6930;DHT22;3504;52.616;13.238;2023-02-24T09:08:52;4.97;69.52
6930;DHT22;3504;52.616;13.238;2023-02-24T09:14:18;4.93;68.85
6930;DHT22;3504;52.616;13.238;2023-02-24T09:19:19;4.96;68.67
6930;DHT22;3504;52.616;13.238;2023-02-24T09:24:40;5.07;68.98
6930;DHT22;3504;52.616;13.238;2023-02-24T09:29:41;5.21;69.07
6930;DHT22;3504;52.616;13.238;2023-02-24T09:34:48;5.21;68.59
6930;DHT22;3504;52.616;13.238;2023-02-24T09:39:49;5.30;68.31
6930;DHT22;3504;52.616;13.238;2023-02-24T09:45:04;5.51;68.88
6930;DHT22;3504;52.616;13.238;2023-02-24T09:50:28;5.58;67.87
6930;DHT22;3504;52.616;13.238;2023-02-24T09:55:58;5.54;67.08
6930;DHT22;3504;52.616;13.238;2023-02-24T10:06:27;5.74;68.11
6930;DHT22;3504;52.616;13.238;2023-02-24T10:11:34;5.74;66.78
6930;DHT22;3504;52.616;13.238;2023-02-24T10:16:40;5.67;66.84
6930;DHT22;3504;52.616;13.238;2023-02-24T10:22:00;5.68;66.82
6930;DHT22;3504;52.616;13.238;2023-02-24T10:27:23;5.61;66.82
6930;DHT22;3504;52.616;13.238;2023-02-24T10:37:36;5.45;68.61
6930;DHT22;3504;52.616;13.238;2023-02-24T10:42:39;5.35;69.78
6930;DHT22;3504;52.616;13.238;2023-02-24T10:47:57;5.24;71.49
6930;DHT22;3504;52.616;13.238;2023-02-24T10:53:10;5.16;73.40
6930;DHT22;3504;52.616;13.238;2023-02-24T10:58:30;5.01;73.99
6930;DHT22;3504;52.616;13.238;2023-02-24T11:03:54;4.96;74.94
6930;DHT22;3504;52.616;13.238;2023-02-24T11:09:01;4.80;75.61
6930;DHT22;3504;52.616;13.238;2023-02-24T11:14:18;4.76;76.63
6930;DHT22;3504;52.616;13.238;2023-02-24T11:19:48;4.69;77.03
6930;DHT22;3504;52.616;13.238;2023-02-24T11:24:49;4.42;78.01
6930;DHT22;3504;52.616;13.238;2023-02-24T11:35:31;4.32;79.77
6930;DHT22;3504;52.616;13.238;2023-02-24T11:40:41;4.34;80.56
6930;DHT22;3504;52.616;13.238;2023-02-24T11:46:11;4.26;80.56
6930;DHT22;3504;52.616;13.238;2023-02-24T11:51:27;4.14;80.97
6930;DHT22;3504;52.616;13.238;2023-02-24T11:56:53;4.12;81.26
6930;DHT22;3504;52.616;13.238;2023-02-24T12:02:29;4.10;81.50
6930;DHT22;3504;52.616;13.238;2023-02-24T12:07:40;4.01;81.40
6930;DHT22;3504;52.616;13.238;2023-02-24T12:13:31;4.00;81.90
6930;DHT22;3504;52.616;13.238;2023-02-24T12:18:45;3.87;81.41
6930;DHT22;3504;52.616;13.238;2023-02-24T12:23:50;3.83;81.97
6930;DHT22;3504;52.616;13.238;2023-02-24T12:51:26;3.46;83.11
6930;DHT22;3504;52.616;13.238;2023-02-24T12:56:51;3.49;83.45
6930;DHT22;3504;52.616;13.238;2023-02-24T13:01:58;3.40;83.72
6930;DHT22;3504;52.616;13.238;2023-02-24T13:12:50;3.33;84.51
6930;DHT22;3504;52.616;13.238;2023-02-24T13:17:54;3.32;85.07
6930;DHT22;3504;52.616;13.238;2023-02-24T13:22:55;3.33;84.78
6930;DHT22;3504;52.616;13.238;2023-02-24T13:28:17;3.28;84.84
6930;DHT22;3504;52.616;13.238;2023-02-24T13:33:27;3.30;85.00
6930;DHT22;3504;52.616;13.238;2023-02-24T13:43:31;3.18;85.33
6930;DHT22;3504;52.616;13.238;2023-02-24T13:48:59;3.26;85.29
6930;DHT22;3504;52.616;13.238;2023-02-24T13:59:43;3.35;85.40
6930;DHT22;3504;52.616;13.238;2023-02-24T14:04:54;3.35;85.77
6930;DHT22;3504;52.616;13.238;2023-02-24T14:10:01;3.33;85.39
6930;DHT22;3504;52.616;13.238;2023-02-24T14:15:05;3.33;85.92
6930;DHT22;3504;52.616;13.238;2023-02-24T14:25:11;3.35;85.51
6930;DHT22;3504;52.616;13.238;2023-02-24T14:30:27;3.32;85.61
6930;DHT22;3504;52.616;13.238;2023-02-24T14:35:41;3.35;85.95
6930;DHT22;3504;52.616;13.238;2023-02-24T14:40:47;3.32;86.09
6930;DHT22;3504;52.616;13.238;2023-02-24T14:45:50;3.33;86.20
6930;DHT22;3504;52.616;13.238;2023-02-24T14:50:55;3.43;86.02
6930;DHT22;3504;52.616;13.238;2023-02-24T14:55:59;3.45;86.07
6930;DHT22;3504;52.616;13.238;2023-02-24T15:01:04;3.43;85.92
6930;DHT22;3504;52.616;13.238;2023-02-24T15:06:12;3.39;85.70
6930;DHT22;3504;52.616;13.238;2023-02-24T15:16:25;3.39;86.01
6930;DHT22;3504;52.616;13.238;2023-02-24T15:21:39;3.40;85.83
6930;DHT22;3504;52.616;13.238;2023-02-24T15:26:40;3.36;85.65
6930;DHT22;3504;52.616;13.238;2023-02-24T15:31:46;3.38;85.77
6930;DHT22;3504;52.616;13.238;2023-02-24T15:36:48;3.45;85.74
6930;DHT22;3504;52.616;13.238;2023-02-24T15:41:51;3.43;85.85
6930;DHT22;3504;52.616;13.238;2023-02-24T15:47:25;3.40;85.99
6930;DHT22;3504;52.616;13.238;2023-02-24T15:52:27;3.39;85.88
6930;DHT22;3504;52.616;13.238;2023-02-24T15:57:30;3.39;86.03
6930;DHT22;3504;52.616;13.238;2023-02-24T16:02:31;3.32;85.88
6930;DHT22;3504;52.616;13.238;2023-02-24T16:07:35;3.33;85.97
6930;DHT22;3504;52.616;13.238;2023-02-24T16:12:52;3.36;86.24
6930;DHT22;3504;52.616;13.238;2023-02-24T16:17:53;3.38;86.20
6930;DHT22;3504;52.616;13.238;2023-02-24T16:22:59;3.33;86.35
6930;DHT22;3504;52.616;13.238;2023-02-24T16:28:01;3.35;86.37
6930;DHT22;3504;52.616;13.238;2023-02-24T16:33:02;3.30;86.61
6930;DHT22;3504;52.616;13.238;2023-02-24T16:38:03;3.35;86.63
6930;DHT22;3504;52.616;13.238;2023-02-24T16:43:04;3.35;86.48
6930;DHT22;3504;52.616;13.238;2023-02-24T16:48:28;3.32;86.65
6930;DHT22;3504;52.616;13.238;2023-02-24T16:53:30;3.33;86.71
6930;DHT22;3504;52.616;13.238;2023-02-24T16:58:30;3.33;86.92
6930;DHT22;3504;52.616;13.238;2023-02-24T17:03:45;3.39;86.82
6930;DHT22;3504;52.616;13.238;2023-02-24T17:08:45;3.39;86.93
6930;DHT22;3504;52.616;13.238;2023-02-24T17:13:46;3.35;87.10
6930;DHT22;3504;52.616;13.238;2023-02-24T17:18:47;3.36;87.07
6930;DHT22;3504;52.616;13.238;2023-02-24T17:23:47;3.36;87.11
6930;DHT22;3504;52.616;13.238;2023-02-24T17:28:48;3.39;87.17
6930;DHT22;3504;52.616;13.238;2023-02-24T17:33:49;3.39;87.20
6930;DHT22;3504;52.616;13.238;2023-02-24T17:38:49;3.43;87.21
6930;DHT22;3504;52.616;13.238;2023-02-24T17:43:53;3.45;87.06
6930;DHT22;3504;52.616;13.238;2023-02-24T17:48:54;3.43;86.97
6930;DHT22;3504;52.616;13.238;2023-02-24T17:53:54;3.48;87.03
6930;DHT22;3504;52.616;13.238;2023-02-24T17:58:55;3.50;87.13
6930;DHT22;3504;52.616;13.238;2023-02-24T18:03:58;3.58;86.96
6930;DHT22;3504;52.616;13.238;2023-02-24T18:08:58;3.56;86.81
6930;DHT22;3504;52.616;13.238;2023-02-24T18:14:00;3.56;86.84
6930;DHT22;3504;52.616;13.238;2023-02-24T18:19:01;3.53;87.01
6930;DHT22;3504;52.616;13.238;2023-02-24T18:24:01;3.53;87.05
6930;DHT22;3504;52.616;13.238;2023-02-24T18:29:02;3.56;86.88
6930;DHT22;3504;52.616;13.238;2023-02-24T18:34:03;3.60;86.86
6930;DHT22;3504;52.616;13.238;2023-02-24T18:39:04;3.63;86.87
6930;DHT22;3504;52.616;13.238;2023-02-24T18:44:05;3.62;86.85
6930;DHT22;3504;52.616;13.238;2023-02-24T18:49:06;3.64;87.07
6930;DHT22;3504;52.616;13.238;2023-02-24T18:54:09;3.70;87.05
6930;DHT22;3504;52.616;13.238;2023-02-24T18:59:10;3.73;87.02
6930;DHT22;3504;52.616;13.238;2023-02-24T19:04:10;3.74;86.93
6930;DHT22;3504;52.616;13.238;2023-02-24T19:09:12;3.71;86.97
6930;DHT22;3504;52.616;13.238;2023-02-24T19:14:12;3.80;86.90
6930;DHT22;3504;52.616;13.238;2023-02-24T19:19:14;3.80;87.05
6930;DHT22;3504;52.616;13.238;2023-02-24T19:24:16;3.81;86.93
6930;DHT22;3504;52.616;13.238;2023-02-24T19:29:16;3.83;87.02
6930;DHT22;3504;52.616;13.238;2023-02-24T19:34:19;3.86;86.92
6930;DHT22;3504;52.616;13.238;2023-02-24T19:39:20;3.90;87.23
6930;DHT22;3504;52.616;13.238;2023-02-24T19:44:20;3.90;87.22
6930;DHT22;3504;52.616;13.238;2023-02-24T19:49:21;3.90;87.34
6930;DHT22;3504;52.616;13.238;2023-02-24T19:54:22;3.93;87.47
6930;DHT22;3504;52.616;13.238;2023-02-24T19:59:23;3.94;87.53
6930;DHT22;3504;52.616;13.238;2023-02-24T20:04:24;3.94;87.66
6930;DHT22;3504;52.616;13.238;2023-02-24T20:09:24;3.97;87.53
6930;DHT22;3504;52.616;13.238;2023-02-24T20:14:27;3.98;87.50
6930;DHT22;3504;52.616;13.238;2023-02-24T20:19:28;3.98;87.78
6930;DHT22;3504;52.616;13.238;2023-02-24T20:24:28;4.02;87.73
6930;DHT22;3504;52.616;13.238;2023-02-24T20:29:31;4.07;87.85
6930;DHT22;3504;52.616;13.238;2023-02-24T20:34:35;4.07;87.85
6930;DHT22;3504;52.616;13.238;2023-02-24T20:39:36;4.10;87.82
6930;DHT22;3504;52.616;13.238;2023-02-24T20:44:37;4.07;87.93
6930;DHT22;3504;52.616;13.238;2023-02-24T20:49:38;4.08;88.08
6930;DHT22;3504;52.616;13.238;2023-02-24T20:54:38;4.12;88.01
6930;DHT22;3504;52.616;13.238;2023-02-24T20:59:39;4.12;88.07
6930;DHT22;3504;52.616;13.238;2023-02-24T21:04:42;4.07;88.37
6930;DHT22;3504;52.616;13.238;2023-02-24T21:09:43;4.12;88.42
6930;DHT22;3504;52.616;13.238;2023-02-24T21:14:43;4.15;88.43
6930;DHT22;3504;52.616;13.238;2023-02-24T21:19:44;4.15;88.51
6930;DHT22;3504;52.616;13.238;2023-02-24T21:24:44;4.14;88.32
6930;DHT22;3504;52.616;13.238;2023-02-24T21:29:45;4.18;88.39
6930;DHT22;3504;52.616;13.238;2023-02-24T21:34:45;4.18;88.48
6930;DHT22;3504;52.616;13.238;2023-02-24T21:39:46;4.20;88.43
6930;DHT22;3504;52.616;13.238;2023-02-24T21:44:47;4.21;88.49
6930;DHT22;3504;52.616;13.238;2023-02-24T21:49:51;4.20;88.59
6930;DHT22;3504;52.616;13.238;2023-02-24T21:54:52;4.26;88.40
6930;DHT22;3504;52.616;13.238;2023-02-24T21:59:52;4.24;88.42
6930;DHT22;3504;52.616;13.238;2023-02-24T22:04:53;4.24;88.59
6930;DHT22;3504;52.616;13.238;2023-02-24T22:09:53;4.26;88.57
6930;DHT22;3504;52.616;13.238;2023-02-24T22:14:54;4.31;88.44
6930;DHT22;3504;52.616;13.238;2023-02-24T22:19:54;4.24;88.42
6930;DHT22;3504;52.616;13.238;2023-02-24T22:24:55;4.26;88.21
6930;DHT22;3504;52.616;13.238;2023-02-24T22:29:56;4.25;88.29
6930;DHT22;3504;52.616;13.238;2023-02-24T22:34:56;4.26;88.05
6930;DHT22;3504;52.616;13.238;2023-02-24T22:39:57;4.25;88.04
6930;DHT22;3504;52.616;13.238;2023-02-24T22:44:57;4.25;87.83
6930;DHT22;3504;52.616;13.238;2023-02-24T22:49:59;4.29;87.89
6930;DHT22;3504;52.616;13.238;2023-02-24T22:54:59;4.29;87.49
6930;DHT22;3504;52.616;13.238;2023-02-24T23:00:00;4.28;87.56
6930;DHT22;3504;52.616;13.238;2023-02-24T23:05:01;4.31;87.37
6930;DHT22;3504;52.616;13.238;2023-02-24T23:10:01;4.28;87.34
6930;DHT22;3504;52.616;13.238;2023-02-24T23:15:02;4.31;87.41
6930;DHT22;3504;52.616;13.238;2023-02-24T23:20:03;4.31;87.21
6930;DHT22;3504;52.616;13.238;2023-02-24T23:25:09;4.35;87.48
6930;DHT22;3504;52.616;13.238;2023-02-24T23:30:10;4.36;87.22
6930;DHT22;3504;52.616;13.238;2023-02-24T23:35:11;4.28;87.19
6930;DHT22;3504;52.616;13.238;2023-02-24T23:40:12;4.28;87.58
6930;DHT22;3504;52.616;13.238;2023-02-24T23:45:15;4.21;87.67
6930;DHT22;3504;52.616;13.238;2023-02-24T23:50:17;4.15;87.96
6930;DHT22;3504;52.616;13.238;2023-02-24T23:55:17;4.14;88.19
